createdAt,value
2023-03-10T00:01:02.755Z,984.27
2023-03-10T00:03:35.871Z,984.26
2023-03-10T00:06:08.991Z,984.25
2023-03-10T00:08:41.990Z,984.24
2023-03-10T00:11:14.938Z,984.23
2023-03-10T00:13:48.028Z,984.21
2023-03-10T00:16:20.634Z,984.18
2023-03-10T00:18:54.107Z,984.15
2023-03-10T00:21:27.788Z,984.11
2023-03-10T00:24:00.645Z,984.07
2023-03-10T00:26:33.836Z,984.05
2023-03-10T00:29:07.194Z,984.00
2023-03-10T00:31:40.952Z,983.96
2023-03-10T00:34:13.956Z,983.93
2023-03-10T00:36:46.773Z,983.91
2023-03-10T00:39:19.957Z,983.87
2023-03-10T00:41:52.783Z,983.83
2023-03-10T00:44:25.765Z,983.79
2023-03-10T00:46:58.962Z,983.77
2023-03-10T00:49:32.153Z,983.76
2023-03-10T00:52:05.825Z,983.74
2023-03-10T00:54:38.715Z,983.72
2023-03-10T00:57:11.796Z,983.70
2023-03-10T00:59:50.393Z,983.68
2023-03-10T01:02:17.734Z,983.66
2023-03-10T01:04:51.040Z,983.62
2023-03-10T01:07:23.812Z,983.59
2023-03-10T01:09:56.960Z,983.55
2023-03-10T01:12:29.914Z,983.52
2023-03-10T01:15:03.065Z,983.49
2023-03-10T01:17:36.196Z,983.43
2023-03-10T01:20:09.846Z,983.39
2023-03-10T01:22:43.006Z,983.37
2023-03-10T01:25:15.755Z,983.32
2023-03-10T01:27:49.072Z,983.26
2023-03-10T01:30:21.962Z,983.20
2023-03-10T01:32:55.115Z,983.16
2023-03-10T01:35:28.013Z,983.13
2023-03-10T01:38:00.901Z,983.10
2023-03-10T01:40:34.262Z,983.07
2023-03-10T01:43:07.036Z,983.02
2023-03-10T01:45:39.805Z,982.96
2023-03-10T01:48:13.135Z,982.94
2023-03-10T01:50:45.854Z,982.90
2023-03-10T01:53:18.755Z,982.85
2023-03-10T01:55:51.981Z,982.81
2023-03-10T01:58:24.963Z,982.76
2023-03-10T02:00:58.225Z,982.72
2023-03-10T02:03:32.146Z,982.66
2023-03-10T02:06:04.926Z,982.61
2023-03-10T02:08:37.854Z,982.56
2023-03-10T02:11:11.196Z,982.52
2023-03-10T02:13:43.806Z,982.47
2023-03-10T02:16:17.044Z,982.45
2023-03-10T02:18:50.110Z,982.41
2023-03-10T02:21:22.824Z,982.38
2023-03-10T02:24:01.258Z,982.34
2023-03-10T02:26:29.138Z,982.31
2023-03-10T02:29:02.010Z,982.26
2023-03-10T02:31:35.116Z,982.25
2023-03-10T02:34:08.111Z,982.23
2023-03-10T02:36:40.846Z,982.21
2023-03-10T02:39:14.140Z,982.20
2023-03-10T02:41:47.166Z,982.20
2023-03-10T02:44:19.906Z,982.21
2023-03-10T02:46:53.291Z,982.20
2023-03-10T02:49:27.222Z,982.17
2023-03-10T02:52:00.130Z,982.17
2023-03-10T02:54:33.169Z,982.17
2023-03-10T02:57:05.987Z,982.18
2023-03-10T02:59:43.038Z,982.18
2023-03-10T03:02:16.004Z,982.16
2023-03-10T03:04:49.120Z,982.17
2023-03-10T03:07:21.896Z,982.15
2023-03-10T03:09:55.219Z,982.11
2023-03-10T03:12:28.452Z,982.08
2023-03-10T03:15:02.241Z,982.07
2023-03-10T03:17:35.218Z,982.07
2023-03-10T03:20:09.202Z,982.04
2023-03-10T03:22:46.027Z,982.04
2023-03-10T03:25:19.018Z,982.05
2023-03-10T03:27:52.398Z,982.05
2023-03-10T03:30:26.328Z,982.05
2023-03-10T03:33:05.112Z,982.06
2023-03-10T03:35:38.384Z,982.06
2023-03-10T03:38:12.222Z,982.05
2023-03-10T03:40:45.395Z,982.01
2023-03-10T03:43:19.153Z,981.96
2023-03-10T03:45:52.283Z,981.95
2023-03-10T03:48:25.310Z,981.90
2023-03-10T03:50:58.371Z,981.85
2023-03-10T03:53:31.277Z,981.84
2023-03-10T03:56:04.052Z,981.81
2023-03-10T03:58:37.250Z,981.77
2023-03-10T04:01:10.240Z,981.75
2023-03-10T04:03:43.421Z,981.73
2023-03-10T04:06:15.974Z,981.71
2023-03-10T04:08:49.297Z,981.69
2023-03-10T04:11:21.985Z,981.69
2023-03-10T04:13:55.318Z,981.69
2023-03-10T04:16:28.005Z,981.69
2023-03-10T04:19:01.105Z,981.66
2023-03-10T04:21:34.093Z,981.64
2023-03-10T04:24:07.315Z,981.64
2023-03-10T04:26:42.954Z,981.67
2023-03-10T04:29:16.059Z,981.69
2023-03-10T04:32:02.815Z,981.71
2023-03-10T04:34:22.092Z,981.71
2023-03-10T04:36:55.137Z,981.73
2023-03-10T04:39:28.257Z,981.69
2023-03-10T04:42:01.575Z,981.68
2023-03-10T04:44:35.437Z,981.67
2023-03-10T04:47:08.400Z,981.67
2023-03-10T04:49:41.117Z,981.64
2023-03-10T04:52:14.250Z,981.61
2023-03-10T04:54:47.171Z,981.58
2023-03-10T04:57:20.074Z,981.55
2023-03-10T04:59:53.305Z,981.52
2023-03-10T05:02:29.494Z,981.49
2023-03-10T05:05:03.395Z,981.46
2023-03-10T05:07:36.052Z,981.42
2023-03-10T05:10:09.374Z,981.37
2023-03-10T05:12:42.088Z,981.32
2023-03-10T05:15:15.248Z,981.28
2023-03-10T05:17:50.043Z,981.24
2023-03-10T05:20:23.998Z,981.20
2023-03-10T05:22:57.199Z,981.16
2023-03-10T05:25:30.337Z,981.12
2023-03-10T05:28:03.381Z,981.10
2023-03-10T05:30:36.227Z,981.08
2023-03-10T05:33:10.420Z,981.04
2023-03-10T05:35:43.168Z,981.01
2023-03-10T05:38:16.117Z,980.97
2023-03-10T05:40:49.094Z,980.96
2023-03-10T05:43:22.101Z,980.92
2023-03-10T05:45:59.356Z,980.90
2023-03-10T05:48:32.147Z,980.88
2023-03-10T05:51:05.196Z,980.88
2023-03-10T05:53:38.394Z,980.88
2023-03-10T05:56:11.508Z,980.87
2023-03-10T05:58:44.125Z,980.85
2023-03-10T06:01:17.438Z,980.81
2023-03-10T06:03:50.353Z,980.79
2023-03-10T06:06:23.460Z,980.77
2023-03-10T06:08:56.435Z,980.76
2023-03-10T06:11:29.539Z,980.75
2023-03-10T06:14:02.470Z,980.73
2023-03-10T06:16:35.689Z,980.71
2023-03-10T06:19:08.454Z,980.71
2023-03-10T06:21:41.157Z,980.70
2023-03-10T06:24:14.466Z,980.70
2023-03-10T06:26:47.282Z,980.67
2023-03-10T06:29:20.448Z,980.66
2023-03-10T06:31:53.351Z,980.64
2023-03-10T06:34:26.275Z,980.63
2023-03-10T06:36:59.388Z,980.63
2023-03-10T06:39:32.574Z,980.63
2023-03-10T06:42:05.532Z,980.63
2023-03-10T06:44:38.205Z,980.64
2023-03-10T06:47:11.616Z,980.63
2023-03-10T06:49:44.216Z,980.63
2023-03-10T06:52:17.336Z,980.63
2023-03-10T06:54:50.408Z,980.61
2023-03-10T06:57:23.647Z,980.60
2023-03-10T06:59:56.313Z,980.57
2023-03-10T07:02:29.563Z,980.57
2023-03-10T07:05:02.644Z,980.57
2023-03-10T07:07:35.619Z,980.58
2023-03-10T07:10:08.596Z,980.58
2023-03-10T07:12:41.274Z,980.57
2023-03-10T07:15:14.691Z,980.57
2023-03-10T07:17:48.676Z,980.54
2023-03-10T07:20:21.412Z,980.54
2023-03-10T07:22:54.333Z,980.57
2023-03-10T07:25:27.420Z,980.57
2023-03-10T07:28:00.434Z,980.53
2023-03-10T07:30:33.863Z,980.52
2023-03-10T07:33:07.975Z,980.52
2023-03-10T07:35:41.333Z,980.54
2023-03-10T07:38:14.512Z,980.56
2023-03-10T07:40:47.356Z,980.58
2023-03-10T07:43:20.644Z,980.61
2023-03-10T07:45:53.644Z,980.62
2023-03-10T07:48:26.619Z,980.67
2023-03-10T07:50:59.653Z,980.71
2023-03-10T07:53:32.608Z,980.75
2023-03-10T07:56:05.850Z,980.79
2023-03-10T07:58:39.769Z,980.81
2023-03-10T08:01:12.489Z,980.82
2023-03-10T08:03:46.799Z,980.83
2023-03-10T08:06:19.677Z,980.83
2023-03-10T08:08:52.576Z,980.85
2023-03-10T08:11:25.672Z,980.88
2023-03-10T08:13:58.738Z,980.89
2023-03-10T08:16:31.732Z,980.90
2023-03-10T08:19:04.877Z,980.93
2023-03-10T08:21:38.892Z,980.93
2023-03-10T08:24:11.744Z,980.93
2023-03-10T08:26:44.603Z,980.92
2023-03-10T08:29:17.667Z,980.93
2023-03-10T08:31:50.459Z,980.96
2023-03-10T08:34:23.806Z,981.00
2023-03-10T08:36:56.563Z,981.04
2023-03-10T08:39:29.470Z,981.05
2023-03-10T08:42:02.602Z,981.07
2023-03-10T08:44:35.468Z,981.10
2023-03-10T08:47:08.765Z,981.14
2023-03-10T08:49:44.437Z,981.18
2023-03-10T08:52:14.671Z,981.20
2023-03-10T08:54:47.484Z,981.21
2023-03-10T08:57:20.526Z,981.23
2023-03-10T08:59:53.765Z,981.26
2023-03-10T09:02:26.988Z,981.28
2023-03-10T09:05:00.885Z,981.29
2023-03-10T09:07:34.800Z,981.32
2023-03-10T09:10:07.751Z,981.35
2023-03-10T09:12:40.665Z,981.37
2023-03-10T09:15:13.821Z,981.37
2023-03-10T09:17:46.722Z,981.39
2023-03-10T09:20:19.953Z,981.42
2023-03-10T09:22:53.795Z,981.45
2023-03-10T09:25:26.627Z,981.46
2023-03-10T09:27:59.777Z,981.48
2023-03-10T09:30:32.749Z,981.49
2023-03-10T09:33:05.987Z,981.51
2023-03-10T09:35:41.777Z,981.52
2023-03-10T09:38:11.555Z,981.51
2023-03-10T09:40:44.727Z,981.52
2023-03-10T09:43:17.734Z,981.52
2023-03-10T09:45:51.073Z,981.54
2023-03-10T09:48:26.365Z,981.55
2023-03-10T09:50:57.682Z,981.57
2023-03-10T09:53:31.342Z,981.58
2023-03-10T09:56:04.814Z,981.58
2023-03-10T09:58:37.667Z,981.58
2023-03-10T10:01:10.614Z,981.57
2023-03-10T10:03:52.591Z,981.55
2023-03-10T10:06:17.029Z,981.53
2023-03-10T10:09:01.864Z,981.53
2023-03-10T10:11:23.862Z,981.53
2023-03-10T10:13:56.544Z,981.53
2023-03-10T10:16:34.676Z,981.53
2023-03-10T10:19:03.854Z,981.50
2023-03-10T10:21:42.761Z,981.47
2023-03-10T10:24:09.586Z,981.46
2023-03-10T10:26:42.785Z,981.44
2023-03-10T10:29:15.871Z,981.43
2023-03-10T10:31:48.659Z,981.45
2023-03-10T10:34:21.838Z,981.45
2023-03-10T10:36:54.725Z,981.43
2023-03-10T10:39:28.343Z,981.41
2023-03-10T10:42:00.922Z,981.39
2023-03-10T10:44:33.898Z,981.39
2023-03-10T10:47:07.095Z,981.41
2023-03-10T10:49:40.867Z,981.44
2023-03-10T10:52:13.934Z,981.47
2023-03-10T10:54:46.856Z,981.49
2023-03-10T10:57:19.800Z,981.51
2023-03-10T10:59:52.898Z,981.52
2023-03-10T11:02:25.698Z,981.54
2023-03-10T11:04:58.683Z,981.55
2023-03-10T11:07:32.096Z,981.57
2023-03-10T11:10:05.968Z,981.56
2023-03-10T11:12:38.602Z,981.56
2023-03-10T11:15:11.885Z,981.55
2023-03-10T11:17:44.606Z,981.54
2023-03-10T11:20:17.759Z,981.55
2023-03-10T11:22:51.103Z,981.55
2023-03-10T11:25:25.121Z,981.55
2023-03-10T11:27:58.906Z,981.54
2023-03-10T11:30:31.842Z,981.55
2023-03-10T11:33:04.635Z,981.55
2023-03-10T11:35:38.077Z,981.57
2023-03-10T11:38:10.919Z,981.58
2023-03-10T11:40:43.914Z,981.60
2023-03-10T11:43:16.965Z,981.60
2023-03-10T11:45:50.141Z,981.60
2023-03-10T11:48:23.012Z,981.59
2023-03-10T11:50:55.989Z,981.59
2023-03-10T11:53:28.979Z,981.58
2023-03-10T11:56:02.074Z,981.55
2023-03-10T11:58:35.032Z,981.52
2023-03-10T12:01:07.936Z,981.50
2023-03-10T12:03:41.220Z,981.49
2023-03-10T12:06:15.048Z,981.50
2023-03-10T12:08:47.959Z,981.47
2023-03-10T12:11:20.986Z,981.45
2023-03-10T12:13:54.161Z,981.43
2023-03-10T12:16:28.093Z,981.41
2023-03-10T12:19:01.089Z,981.42
2023-03-10T12:21:34.193Z,981.41
2023-03-10T12:24:08.064Z,981.41
2023-03-10T12:26:41.026Z,981.43
2023-03-10T12:29:13.691Z,981.40
2023-03-10T12:31:47.000Z,981.36
2023-03-10T12:34:19.716Z,981.34
2023-03-10T12:36:52.726Z,981.31
2023-03-10T12:39:25.860Z,981.32
2023-03-10T12:41:58.869Z,981.31
2023-03-10T12:44:31.884Z,981.32
2023-03-10T12:47:04.923Z,981.32
2023-03-10T12:49:37.762Z,981.30
2023-03-10T12:52:10.842Z,981.29
2023-03-10T12:54:43.772Z,981.25
2023-03-10T12:57:17.013Z,981.24
2023-03-10T12:59:49.752Z,981.21
2023-03-10T13:02:22.911Z,981.16
2023-03-10T13:04:56.010Z,981.14
2023-03-10T13:07:29.196Z,981.13
2023-03-10T13:10:02.311Z,981.11
2023-03-10T13:12:35.955Z,981.08
2023-03-10T13:15:08.939Z,981.06
2023-03-10T13:17:42.106Z,981.02
2023-03-10T13:20:15.153Z,981.01
2023-03-10T13:22:47.769Z,981.01
2023-03-10T13:25:21.176Z,981.02
2023-03-10T13:27:54.102Z,981.03
2023-03-10T13:30:26.802Z,981.00
2023-03-10T13:33:00.104Z,980.98
2023-03-10T13:35:33.282Z,980.97
2023-03-10T13:38:05.955Z,980.94
2023-03-10T13:40:39.348Z,980.91
2023-03-10T13:43:12.095Z,980.86
2023-03-10T13:45:44.868Z,980.85
2023-03-10T13:48:17.940Z,980.84
2023-03-10T13:50:50.846Z,980.79
2023-03-10T13:53:24.312Z,980.79
2023-03-10T13:55:58.182Z,980.80
2023-03-10T13:58:31.186Z,980.85
2023-03-10T14:01:04.413Z,980.89
2023-03-10T14:03:38.284Z,980.93
2023-03-10T14:06:11.273Z,981.01
2023-03-10T14:08:44.151Z,981.09
2023-03-10T14:11:17.148Z,981.15
2023-03-10T14:13:50.124Z,981.20
2023-03-10T14:16:23.230Z,981.23
2023-03-10T14:18:56.171Z,981.28
2023-03-10T14:21:29.196Z,981.35
2023-03-10T14:24:02.067Z,981.40
2023-03-10T14:26:35.242Z,981.40
2023-03-10T14:29:07.972Z,981.45
2023-03-10T14:31:41.003Z,981.50
2023-03-10T14:34:13.914Z,981.55
2023-03-10T14:36:48.816Z,981.61
2023-03-10T14:39:22.217Z,981.71
2023-03-10T14:41:55.190Z,981.80
2023-03-10T14:44:28.394Z,981.86
2023-03-10T14:47:02.350Z,981.92
2023-03-10T14:49:35.031Z,981.96
2023-03-10T14:52:08.070Z,981.99
2023-03-10T14:54:41.045Z,982.03
2023-03-10T14:57:14.101Z,982.05
2023-03-10T14:59:47.003Z,982.11
2023-03-10T15:02:19.953Z,982.16
2023-03-10T15:04:53.129Z,982.25
2023-03-10T15:07:26.293Z,982.31
2023-03-10T15:10:10.627Z,982.41
2023-03-10T15:12:32.256Z,982.51
2023-03-10T15:15:05.071Z,982.55
2023-03-10T15:17:38.213Z,982.61
2023-03-10T15:20:11.306Z,982.67
2023-03-10T15:22:44.330Z,982.73
2023-03-10T15:25:16.977Z,982.79
2023-03-10T15:27:50.383Z,982.86
2023-03-10T15:30:23.274Z,982.89
2023-03-10T15:32:56.234Z,982.94
2023-03-10T15:35:29.353Z,982.97
2023-03-10T15:38:02.127Z,983.04
2023-03-10T15:40:35.063Z,983.10
2023-03-10T15:43:08.372Z,983.12
2023-03-10T15:45:41.065Z,983.13
2023-03-10T15:48:14.371Z,983.18
2023-03-10T15:50:47.354Z,983.25
2023-03-10T15:53:20.002Z,983.22
2023-03-10T15:55:53.030Z,983.21
2023-03-10T15:58:26.323Z,983.22
2023-03-10T16:00:59.025Z,983.22
2023-03-10T16:03:32.312Z,983.21
2023-03-10T16:06:05.286Z,983.24
2023-03-10T16:08:38.419Z,983.30
2023-03-10T16:11:11.475Z,983.32
2023-03-10T16:13:45.548Z,983.35
2023-03-10T16:16:23.529Z,983.36
2023-03-10T16:19:10.277Z,983.37
2023-03-10T16:21:43.542Z,983.36
2023-03-10T16:24:17.078Z,983.35
2023-03-10T16:26:50.210Z,983.40
2023-03-10T16:29:23.382Z,983.49
2023-03-10T16:31:56.415Z,983.54
2023-03-10T16:34:29.049Z,983.60
2023-03-10T16:37:02.344Z,983.68
2023-03-10T16:39:35.171Z,983.72
2023-03-10T16:42:08.332Z,983.70
2023-03-10T16:44:41.478Z,983.71
2023-03-10T16:47:16.213Z,983.73
2023-03-10T16:49:47.208Z,983.73
2023-03-10T16:52:20.102Z,983.76
2023-03-10T16:54:53.430Z,983.79
2023-03-10T16:57:30.252Z,983.87
2023-03-10T17:00:03.632Z,983.96
2023-03-10T17:02:37.156Z,984.07
2023-03-10T17:05:10.293Z,984.15
2023-03-10T17:07:54.704Z,984.19
2023-03-10T17:10:16.419Z,984.28
2023-03-10T17:12:50.467Z,984.35
2023-03-10T17:15:23.214Z,984.41
2023-03-10T17:17:56.419Z,984.42
2023-03-10T17:20:29.436Z,984.44
2023-03-10T17:23:02.392Z,984.48
2023-03-10T17:25:35.151Z,984.57
2023-03-10T17:28:08.351Z,984.70
2023-03-10T17:30:41.360Z,984.80
2023-03-10T17:33:20.480Z,984.93
2023-03-10T17:35:53.234Z,985.04
2023-03-10T17:38:26.286Z,985.13
2023-03-10T17:40:59.177Z,985.22
2023-03-10T17:43:34.149Z,985.30
2023-03-10T17:46:19.151Z,985.32
2023-03-10T17:48:52.291Z,985.36
2023-03-10T17:51:25.302Z,985.37
2023-03-10T17:54:00.401Z,985.42
2023-03-10T17:56:33.282Z,985.44
2023-03-10T17:59:06.209Z,985.44
2023-03-10T18:01:39.356Z,985.45
2023-03-10T18:04:12.200Z,985.44
2023-03-10T18:06:45.502Z,985.44
2023-03-10T18:09:19.495Z,985.45
2023-03-10T18:11:55.686Z,985.46
2023-03-10T18:14:29.447Z,985.45
2023-03-10T18:17:02.260Z,985.49
2023-03-10T18:19:35.359Z,985.55
2023-03-10T18:22:08.356Z,985.57
2023-03-10T18:24:41.932Z,985.61
2023-03-10T18:27:15.603Z,985.63
2023-03-10T18:29:48.655Z,985.70
2023-03-10T18:32:21.527Z,985.82
2023-03-10T18:34:54.429Z,985.91
2023-03-10T18:37:27.605Z,985.98
2023-03-10T18:40:00.302Z,986.07
2023-03-10T18:42:33.421Z,986.16
2023-03-10T18:45:06.473Z,986.24
2023-03-10T18:47:39.426Z,986.34
2023-03-10T18:50:12.655Z,986.49
2023-03-10T18:52:45.590Z,986.62
2023-03-10T18:55:18.371Z,986.77
2023-03-10T18:57:51.300Z,986.96
2023-03-10T19:00:24.345Z,987.15
2023-03-10T19:02:57.675Z,987.33
2023-03-10T19:05:30.939Z,987.47
2023-03-10T19:08:04.589Z,987.64
2023-03-10T19:10:37.717Z,987.79
2023-03-10T19:13:10.498Z,987.93
2023-03-10T19:15:43.629Z,988.06
2023-03-10T19:18:16.612Z,988.17
2023-03-10T19:20:49.361Z,988.26
2023-03-10T19:23:22.621Z,988.34
2023-03-10T19:25:55.329Z,988.42
2023-03-10T19:28:28.486Z,988.50
2023-03-10T19:31:01.418Z,988.57
2023-03-10T19:33:34.725Z,988.67
2023-03-10T19:36:08.947Z,988.80
2023-03-10T19:38:40.554Z,988.88
2023-03-10T19:41:13.462Z,989.00
2023-03-10T19:43:46.743Z,989.14
2023-03-10T19:46:19.642Z,989.28
2023-03-10T19:48:56.566Z,989.41
2023-03-10T19:51:29.706Z,989.56
2023-03-10T19:54:02.719Z,989.70
2023-03-10T19:56:35.496Z,989.85
2023-03-10T19:59:08.658Z,989.99
2023-03-10T20:01:41.857Z,990.11
2023-03-10T20:04:15.621Z,990.18
2023-03-10T20:06:48.528Z,990.22
2023-03-10T20:09:21.691Z,990.27
2023-03-10T20:11:54.868Z,990.35
2023-03-10T20:14:42.652Z,990.43
2023-03-10T20:17:17.957Z,990.54
2023-03-10T20:19:48.765Z,990.66
2023-03-10T20:22:21.650Z,990.77
2023-03-10T20:24:54.680Z,990.89
2023-03-10T20:27:27.824Z,991.04
2023-03-10T20:30:00.795Z,991.17
2023-03-10T20:32:33.802Z,991.28
2023-03-10T20:35:06.514Z,991.37
2023-03-10T20:37:39.626Z,991.45
2023-03-10T20:40:12.454Z,991.51
2023-03-10T20:42:45.744Z,991.60
2023-03-10T20:45:18.840Z,991.69
2023-03-10T20:47:51.679Z,991.81
2023-03-10T20:50:24.468Z,991.88
2023-03-10T20:52:57.566Z,991.96
2023-03-10T20:55:30.597Z,992.06
2023-03-10T20:58:03.656Z,992.19
2023-03-10T21:00:36.640Z,992.35
2023-03-10T21:03:09.453Z,992.49
2023-03-10T21:05:42.687Z,992.59
2023-03-10T21:08:15.485Z,992.70
2023-03-10T21:10:49.491Z,992.82
2023-03-10T21:13:21.484Z,992.89
2023-03-10T21:15:54.771Z,992.97
2023-03-10T21:18:27.508Z,993.02
2023-03-10T21:21:00.903Z,993.07
2023-03-10T21:23:33.632Z,993.14
2023-03-10T21:26:06.808Z,993.22
2023-03-10T21:28:39.526Z,993.29
2023-03-10T21:31:12.655Z,993.36
2023-03-10T21:33:45.646Z,993.42
2023-03-10T21:36:18.736Z,993.47
2023-03-10T21:38:51.709Z,993.54
2023-03-10T21:41:24.878Z,993.62
2023-03-10T21:43:57.664Z,993.65
2023-03-10T21:46:30.780Z,993.71
2023-03-10T21:49:03.558Z,993.74
2023-03-10T21:51:36.761Z,993.78
2023-03-10T21:54:09.586Z,993.79
2023-03-10T21:56:42.878Z,993.83
2023-03-10T21:59:15.583Z,993.88
2023-03-10T22:01:49.006Z,993.92
2023-03-10T22:04:22.175Z,993.96
2023-03-10T22:06:58.855Z,994.01
2023-03-10T22:09:32.653Z,994.05
2023-03-10T22:12:05.758Z,994.06
2023-03-10T22:14:38.750Z,994.10
2023-03-10T22:17:11.848Z,994.14
2023-03-10T22:19:44.575Z,994.14
2023-03-10T22:22:17.607Z,994.18
2023-03-10T22:24:50.806Z,994.23
2023-03-10T22:27:24.745Z,994.24
2023-03-10T22:29:57.738Z,994.27
2023-03-10T22:32:30.963Z,994.28
2023-03-10T22:35:03.838Z,994.30
2023-03-10T22:37:36.706Z,994.33
2023-03-10T22:40:09.962Z,994.33
2023-03-10T22:42:43.613Z,994.35
2023-03-10T22:45:16.634Z,994.36
2023-03-10T22:47:49.807Z,994.41
2023-03-10T22:50:22.773Z,994.43
2023-03-10T22:52:55.807Z,994.49
2023-03-10T22:55:28.638Z,994.55
2023-03-10T22:58:01.987Z,994.61
2023-03-10T23:00:35.152Z,994.66
2023-03-10T23:03:10.950Z,994.69
2023-03-10T23:05:43.830Z,994.74
2023-03-10T23:08:16.984Z,994.76
2023-03-10T23:10:49.964Z,994.80
2023-03-10T23:13:22.980Z,994.82
2023-03-10T23:15:56.160Z,994.85
2023-03-10T23:18:29.103Z,994.89
2023-03-10T23:21:05.996Z,994.91
2023-03-10T23:23:38.762Z,994.95
2023-03-10T23:26:11.885Z,995.03
2023-03-10T23:28:44.992Z,995.07
2023-03-10T23:31:18.038Z,995.11
2023-03-10T23:33:51.084Z,995.13
2023-03-10T23:36:23.897Z,995.16
2023-03-10T23:38:57.217Z,995.21
2023-03-10T23:41:31.067Z,995.23
2023-03-10T23:44:04.108Z,995.24
2023-03-10T23:46:37.264Z,995.26
2023-03-10T23:49:10.683Z,995.31
2023-03-10T23:51:43.786Z,995.33
2023-03-10T23:54:17.045Z,995.39
2023-03-10T23:56:49.830Z,995.44
2023-03-10T23:59:24.165Z,995.49
